Ana Sayfa
METAR-TAF:

METAR-TAF

Havaalanları :

Asunción, Paraguay

Enlem: 25-16S, Boylam: 057-38W, yükseklik: 101 m

Güncel hava durumu gözlemi

Rapor saat 04:00 UTC de 50 dakika önce yapıldı.
Sakin rüzgar
Sıcaklık 22°C
Nem 78%
Basınç 1013 hPa
Görüş mesafesi 10 km veya daha fazla
1500 m altında bulut yok ve kümülonimbus yok

METAR: SGAS 270400Z 00000KT CAVOK 22/18 Q1013

Saat: 00:50 (04:50 UTC)

Tahmin

Rapor saat 21:45 UTC de 7 saat ve 5 dakika önce yapıldı.
Ayın 27'si saat 00 UTC'den ayın 28'si saat 00 UTC'ye kadar geçerli Tahmin
Rüzgar doğu/kuzeydoğudan 4 kt
Görüş mesafesi: 8000 m
Dönüşüyor
ayın 27'si saat 04 UTC'den ayın 27'si saat 08 UTC'ye kadar
Görüş mesafesi 10 km veya daha fazla
1500 m altında bulut yok ve kümülonimbus yok
Dönüşüyor
ayın 27'si saat 12 UTC'den ayın 27'si saat 15 UTC'ye kadar
Rüzgar kuzey/kuzeydoğudan 8 kt

TAF: SGAS 262145Z 2700/2800 06004KT 8000 NSC TX35/2719Z TN22/2709Z BECMG 2704/2708 CAVOK BECMG 2712/2715 02008KT

4.000'den fazla havaalanı için hava durumu gözlemleri ve tahminleri (METAR ve TAF raporları).

Kullanılabilir istasyonlar harita üzerinde sarı ve kırmızı noktalarla gösterilir.

İstasyonun adını görmek için fareyi noktanın üzerinde gezdirin.

Sonrasında hava gözlem ve tahminlerini görmek için tıklayın.

Haritayı değiştirmek için: yaklaştırmak için siyah artı işaretli yeşil düğmeye ve uzaklaştırmak için de eksi işaretli düğmeye hızla tıklayın; bitişik haritalar için yeşil okları kullanın.


METAR-TAF: